createdAt,value
2023-01-22T00:01:28.696Z,100040.09
2023-01-22T00:04:30.522Z,100044.34
2023-01-22T00:07:32.452Z,100047.90
2023-01-22T00:10:34.142Z,100054.01
2023-01-22T00:13:35.867Z,100054.33
2023-01-22T00:16:37.478Z,100051.44
2023-01-22T00:19:39.192Z,100053.32
2023-01-22T00:22:40.870Z,100056.71
2023-01-22T00:25:42.705Z,100061.45
2023-01-22T00:28:44.322Z,100070.48
2023-01-22T00:31:46.027Z,100069.63
2023-01-22T00:34:47.588Z,100070.65
2023-01-22T00:37:49.200Z,100068.95
2023-01-22T00:40:50.824Z,100067.08
2023-01-22T00:43:53.033Z,100066.55
2023-01-22T00:46:54.909Z,100060.42
2023-01-22T00:49:56.542Z,100063.83
2023-01-22T00:52:58.129Z,100067.23
2023-01-22T00:56:01.725Z,100069.96
2023-01-22T00:59:03.414Z,100067.06
2023-01-22T01:02:05.189Z,100073.86
2023-01-22T01:05:07.448Z,100075.02
2023-01-22T01:08:09.167Z,100069.90
2023-01-22T01:11:19.835Z,100067.00
2023-01-22T01:14:21.583Z,100069.52
2023-01-22T01:17:23.094Z,100073.72
2023-01-22T01:20:24.978Z,100080.17
2023-01-22T01:23:26.902Z,100088.35
2023-01-22T01:26:28.982Z,100091.23
2023-01-22T01:29:30.685Z,100091.91
2023-01-22T01:32:32.431Z,100087.68
2023-01-22T01:35:33.975Z,100098.41
2023-01-22T01:38:36.322Z,100105.02
2023-01-22T01:41:37.949Z,100123.86
2023-01-22T01:44:40.426Z,100124.70
2023-01-22T01:47:42.144Z,100129.75
2023-01-22T01:50:47.591Z,100131.06
2023-01-22T01:53:50.458Z,100126.30
2023-01-22T01:56:57.335Z,100130.05
2023-01-22T01:59:59.919Z,100128.35
2023-01-22T02:03:01.716Z,100128.88
2023-01-22T02:06:03.385Z,100126.03
2023-01-22T02:09:05.364Z,100131.66
2023-01-22T02:12:07.294Z,100126.23
2023-01-22T02:15:09.924Z,100123.02
2023-01-22T02:18:11.533Z,100123.05
2023-01-22T02:21:34.880Z,100116.27
2023-01-22T02:24:36.688Z,100115.59
2023-01-22T02:27:38.225Z,100112.37
2023-01-22T02:30:39.883Z,100109.33
2023-01-22T02:33:41.424Z,100112.55
2023-01-22T02:36:43.017Z,100104.05
2023-01-22T02:39:44.873Z,100104.90
2023-01-22T02:42:46.516Z,100106.79
2023-01-22T02:45:48.182Z,100104.08
2023-01-22T02:48:49.858Z,100101.86
2023-01-22T02:51:51.602Z,100105.27
2023-01-22T02:54:53.136Z,100110.55
2023-01-22T02:57:54.840Z,100111.91
2023-01-22T03:00:56.476Z,100114.97
2023-01-22T03:04:04.104Z,100116.83
2023-01-22T03:07:05.725Z,100120.75
2023-01-22T03:10:10.162Z,100122.96
2023-01-22T03:13:11.874Z,100121.96
2023-01-22T03:16:13.509Z,100120.60
2023-01-22T03:19:15.054Z,100121.80
2023-01-22T03:22:18.118Z,100128.77
2023-01-22T03:25:19.781Z,100132.01
2023-01-22T03:28:21.365Z,100133.55
2023-01-22T03:31:22.976Z,100136.79
2023-01-22T03:34:26.480Z,100132.71
2023-01-22T03:37:28.247Z,100125.59
2023-01-22T03:40:29.934Z,100121.67
2023-01-22T03:43:32.512Z,100126.95
2023-01-22T03:46:34.216Z,100127.12
2023-01-22T03:49:35.826Z,100126.77
2023-01-22T03:52:37.703Z,100131.36
2023-01-22T03:55:39.361Z,100128.64
2023-01-22T03:58:41.379Z,100130.17
2023-01-22T04:01:42.942Z,100133.75
2023-01-22T04:04:44.706Z,100135.80
2023-01-22T04:07:46.272Z,100133.73
2023-01-22T04:10:48.162Z,100136.30
2023-01-22T04:13:50.234Z,100137.99
2023-01-22T04:16:51.838Z,100145.31
2023-01-22T04:19:53.474Z,100147.00
2023-01-22T04:22:55.200Z,100142.23
2023-01-22T04:25:56.784Z,100141.22
2023-01-22T04:28:58.377Z,100136.30
2023-01-22T04:31:59.918Z,100137.66
2023-01-22T04:35:01.649Z,100140.36
2023-01-22T04:38:05.091Z,100142.14
2023-01-22T04:41:06.625Z,100142.92
2023-01-22T04:44:08.423Z,100138.84
2023-01-22T04:47:10.021Z,100137.78
2023-01-22T04:50:19.775Z,100137.33
2023-01-22T04:53:21.660Z,100131.51
2023-01-22T04:56:23.265Z,100128.92
2023-01-22T04:59:24.873Z,100131.29
2023-01-22T05:02:26.806Z,100134.42
2023-01-22T05:05:30.236Z,100141.97
2023-01-22T05:08:31.962Z,100142.39
2023-01-22T05:11:33.533Z,100151.60
2023-01-22T05:14:35.207Z,100144.69
2023-01-22T05:17:36.868Z,100148.45
2023-01-22T05:20:38.736Z,100149.18
2023-01-22T05:23:40.280Z,100150.39
2023-01-22T05:26:41.987Z,100152.95
2023-01-22T05:29:43.618Z,100155.86
2023-01-22T05:32:45.111Z,100155.68
2023-01-22T05:35:58.330Z,100158.47
2023-01-22T05:38:59.981Z,100163.65
2023-01-22T05:42:01.668Z,100172.37
2023-01-22T05:45:03.616Z,100173.09
2023-01-22T05:48:05.543Z,100183.17
2023-01-22T05:51:08.149Z,100187.46
2023-01-22T05:54:09.805Z,100192.61
2023-01-22T05:57:11.466Z,100191.98
2023-01-22T06:00:13.760Z,100195.89
2023-01-22T06:03:15.341Z,100197.42
2023-01-22T06:06:16.884Z,100200.48
2023-01-22T06:09:18.556Z,100207.63
2023-01-22T06:12:20.107Z,100205.92
2023-01-22T06:15:21.774Z,100206.27
2023-01-22T06:18:24.378Z,100209.67
2023-01-22T06:21:29.099Z,100210.36
2023-01-22T06:24:30.661Z,100211.71
2023-01-22T06:27:32.277Z,100210.52
2023-01-22T06:30:34.031Z,100211.20
2023-01-22T06:33:36.066Z,100213.92
2023-01-22T06:36:37.838Z,100218.34
2023-01-22T06:39:39.385Z,100218.00
2023-01-22T06:42:41.511Z,100222.24
2023-01-22T06:45:43.132Z,100218.01
2023-01-22T06:48:44.856Z,100216.48
2023-01-22T06:51:46.556Z,100218.02
2023-01-22T06:54:48.095Z,100221.61
2023-01-22T06:57:49.670Z,100222.64
2023-01-22T07:00:51.301Z,100222.99
2023-01-22T07:03:53.171Z,100229.80
2023-01-22T07:06:54.801Z,100231.16
2023-01-22T07:09:56.428Z,100235.43
2023-01-22T07:12:58.416Z,100232.54
2023-01-22T07:16:04.463Z,100234.09
2023-01-22T07:19:06.129Z,100245.31
2023-01-22T07:22:07.737Z,100250.77
2023-01-22T07:25:09.523Z,100255.23
2023-01-22T07:28:13.573Z,100255.43
2023-01-22T07:31:15.231Z,100253.41
2023-01-22T07:34:16.813Z,100256.30
2023-01-22T07:37:18.469Z,100256.30
2023-01-22T07:40:20.673Z,100255.14
2023-01-22T07:43:22.338Z,100254.13
2023-01-22T07:46:24.119Z,100254.84
2023-01-22T07:49:25.679Z,100259.11
2023-01-22T07:52:27.474Z,100255.06
2023-01-22T07:55:29.154Z,100252.88
2023-01-22T07:58:30.793Z,100257.31
2023-01-22T08:01:32.382Z,100259.36
2023-01-22T08:04:33.999Z,100260.60
2023-01-22T08:07:35.671Z,100259.77
2023-01-22T08:10:38.289Z,100265.91
2023-01-22T08:13:40.051Z,100267.30
2023-01-22T08:16:41.711Z,100266.13
2023-01-22T08:19:43.185Z,100274.34
2023-01-22T08:22:44.807Z,100272.66
2023-01-22T08:25:46.651Z,100276.58
2023-01-22T08:28:48.549Z,100277.48
2023-01-22T08:31:50.756Z,100278.67
2023-01-22T08:34:52.521Z,100278.00
2023-01-22T08:37:54.259Z,100273.77
2023-01-22T08:40:55.934Z,100274.80
2023-01-22T08:43:57.677Z,100278.73
2023-01-22T08:46:59.342Z,100281.11
2023-01-22T08:50:01.005Z,100277.36
2023-01-22T08:53:02.694Z,100280.09
2023-01-22T08:56:04.612Z,100281.13
2023-01-22T08:59:06.239Z,100286.23
2023-01-22T09:02:10.840Z,100285.91
2023-01-22T09:05:12.607Z,100276.06
2023-01-22T09:08:14.084Z,100280.36
2023-01-22T09:11:15.971Z,100283.98
2023-01-22T09:14:17.815Z,100288.96
2023-01-22T09:17:19.404Z,100296.48
2023-01-22T09:20:21.275Z,100299.21
2023-01-22T09:23:22.951Z,100298.50
2023-01-22T09:26:24.660Z,100301.77
2023-01-22T09:29:26.279Z,100306.58
2023-01-22T09:32:27.991Z,100299.93
2023-01-22T09:35:29.593Z,100300.79
2023-01-22T09:38:31.636Z,100294.86
2023-01-22T09:41:46.729Z,100296.74
2023-01-22T09:44:52.096Z,100300.84
2023-01-22T09:47:56.476Z,100295.19
2023-01-22T09:50:58.041Z,100292.80
2023-01-22T09:54:01.342Z,100290.94
2023-01-22T09:57:05.273Z,100288.94
2023-01-22T10:00:33.814Z,100284.20
2023-01-22T10:03:44.384Z,100285.58
2023-01-22T10:06:46.441Z,100285.60
2023-01-22T10:09:53.748Z,100283.76
2023-01-22T10:13:06.650Z,100281.20
2023-01-22T10:16:09.953Z,100281.39
2023-01-22T10:19:25.143Z,100281.73
2023-01-22T10:22:27.110Z,100274.88
2023-01-22T10:25:28.959Z,100276.27
2023-01-22T10:28:30.845Z,100281.90
2023-01-22T10:31:38.299Z,100279.86
2023-01-22T10:34:40.207Z,100276.98
2023-01-22T10:37:50.736Z,100279.90
2023-01-22T10:40:55.345Z,100282.95
2023-01-22T10:44:13.367Z,100294.20
2023-01-22T10:47:23.294Z,100296.73
2023-01-22T10:50:24.919Z,100298.61
2023-01-22T10:53:33.618Z,100295.70
2023-01-22T10:56:37.203Z,100292.44
2023-01-22T10:59:38.845Z,100292.93
2023-01-22T11:02:46.698Z,100288.83
2023-01-22T11:05:51.994Z,100289.00
2023-01-22T11:09:11.368Z,100287.30
2023-01-22T11:12:28.714Z,100288.66
2023-01-22T11:15:52.201Z,100295.10
2023-01-22T11:19:05.290Z,100294.52
2023-01-22T11:22:16.970Z,100286.89
2023-01-22T11:25:18.781Z,100282.86
2023-01-22T11:28:28.355Z,100281.00
2023-01-22T11:31:48.829Z,100275.41
2023-01-22T11:35:05.828Z,100269.64
2023-01-22T11:38:10.480Z,100269.14
2023-01-22T11:41:36.018Z,100274.77
2023-01-22T11:44:52.750Z,100286.01
2023-01-22T11:48:14.510Z,100284.81
2023-01-22T11:51:36.797Z,100286.00
2023-01-22T11:55:12.863Z,100286.30
2023-01-22T11:58:57.332Z,100277.08
2023-01-22T12:02:30.322Z,100284.60
2023-01-22T12:05:48.259Z,100281.91
2023-01-22T12:08:52.966Z,100285.33
2023-01-22T12:12:12.011Z,100287.06
2023-01-22T12:15:18.048Z,100298.31
2023-01-22T12:18:46.823Z,100301.88
2023-01-22T12:21:54.516Z,100298.46
2023-01-22T12:25:02.897Z,100293.18
2023-01-22T12:28:34.554Z,100277.50
2023-01-22T12:31:40.509Z,100279.56
2023-01-22T12:35:00.626Z,100279.55
2023-01-22T12:38:12.616Z,100277.52
2023-01-22T12:41:36.415Z,100289.28
2023-01-22T12:45:07.207Z,100297.13
2023-01-22T12:48:23.053Z,100298.13
2023-01-22T12:51:38.273Z,100299.06
2023-01-22T12:54:39.987Z,100308.65
2023-01-22T12:57:41.831Z,100309.73
2023-01-22T13:00:43.542Z,100312.94
2023-01-22T13:04:00.008Z,100317.89
2023-01-22T13:07:15.820Z,100319.75
2023-01-22T13:10:21.137Z,100328.45
2023-01-22T13:13:33.951Z,100329.98
2023-01-22T13:16:36.798Z,100334.92
2023-01-22T13:19:44.139Z,100328.60
2023-01-22T13:22:45.848Z,100333.67
2023-01-22T13:25:52.173Z,100337.52
2023-01-22T13:29:00.324Z,100346.16
2023-01-22T13:32:19.544Z,100348.29
2023-01-22T13:35:21.379Z,100354.64
2023-01-22T13:38:27.254Z,100355.03
2023-01-22T13:41:37.445Z,100352.70
2023-01-22T13:44:41.805Z,100356.40
2023-01-22T13:47:43.519Z,100353.98
2023-01-22T13:50:51.659Z,100363.95
2023-01-22T13:53:54.931Z,100361.92
2023-01-22T13:56:56.630Z,100356.48
2023-01-22T13:59:59.929Z,100352.90
2023-01-22T14:03:02.136Z,100358.35
2023-01-22T14:06:06.620Z,100371.15
2023-01-22T14:09:08.387Z,100372.75
2023-01-22T14:12:16.004Z,100368.02
2023-01-22T14:15:20.553Z,100368.90
2023-01-22T14:18:22.124Z,100367.79
2023-01-22T14:21:23.684Z,100368.52
2023-01-22T14:24:25.267Z,100372.34
2023-01-22T14:27:45.047Z,100376.15
2023-01-22T14:30:46.727Z,100381.11
2023-01-22T14:33:48.626Z,100384.19
2023-01-22T14:36:50.303Z,100387.77
2023-01-22T14:39:51.878Z,100390.49
2023-01-22T14:42:53.632Z,100397.00
2023-01-22T14:45:55.189Z,100398.02
2023-01-22T14:48:56.847Z,100395.67
2023-01-22T14:51:58.388Z,100401.86
2023-01-22T14:54:59.938Z,100405.48
2023-01-22T14:58:01.681Z,100410.95
2023-01-22T15:01:13.625Z,100416.41
2023-01-22T15:04:15.240Z,100426.55
2023-01-22T15:07:16.862Z,100429.58
2023-01-22T15:10:19.533Z,100433.98
2023-01-22T15:13:21.339Z,100431.42
2023-01-22T15:16:23.025Z,100430.12
2023-01-22T15:19:24.743Z,100435.30
2023-01-22T15:22:26.490Z,100439.63
2023-01-22T15:25:28.160Z,100442.05
2023-01-22T15:28:29.960Z,100445.64
2023-01-22T15:31:32.263Z,100449.02
2023-01-22T15:34:33.963Z,100449.40
2023-01-22T15:37:35.536Z,100450.62
2023-01-22T15:40:37.319Z,100460.24
2023-01-22T15:43:38.808Z,100460.38
2023-01-22T15:46:41.504Z,100465.55
2023-01-22T15:49:43.106Z,100468.36
2023-01-22T15:52:44.771Z,100474.67
2023-01-22T15:55:49.830Z,100479.41
2023-01-22T15:58:52.332Z,100490.48
2023-01-22T16:01:54.090Z,100493.00
2023-01-22T16:04:55.596Z,100494.33
2023-01-22T16:07:57.293Z,100492.84
2023-01-22T16:10:58.871Z,100496.94
2023-01-22T16:14:00.817Z,100499.00
2023-01-22T16:17:02.292Z,100496.80
2023-01-22T16:20:04.294Z,100487.13
2023-01-22T16:23:06.084Z,100492.10
2023-01-22T16:26:08.242Z,100499.60
2023-01-22T16:29:10.258Z,100503.37
2023-01-22T16:32:11.740Z,100499.27
2023-01-22T16:35:13.423Z,100503.83
2023-01-22T16:38:15.121Z,100502.20
2023-01-22T16:41:25.341Z,100507.21
2023-01-22T16:44:27.415Z,100517.09
2023-01-22T16:47:29.059Z,100515.11
2023-01-22T16:50:30.783Z,100517.11
2023-01-22T16:53:32.423Z,100526.50
2023-01-22T16:56:34.703Z,100528.45
2023-01-22T16:59:37.789Z,100532.55
2023-01-22T17:02:39.377Z,100532.89
2023-01-22T17:05:40.954Z,100539.73
2023-01-22T17:08:42.712Z,100542.00
2023-01-22T17:11:45.095Z,100547.58
2023-01-22T17:14:46.658Z,100557.48
2023-01-22T17:17:48.291Z,100568.06
2023-01-22T17:21:01.615Z,100570.47
2023-01-22T17:24:03.994Z,100569.27
2023-01-22T17:27:05.627Z,100573.19
2023-01-22T17:30:08.272Z,100577.80
2023-01-22T17:33:09.982Z,100579.23
2023-01-22T17:36:12.375Z,100579.00
2023-01-22T17:39:15.669Z,100587.50
2023-01-22T17:42:18.174Z,100592.27
2023-01-22T17:45:20.023Z,100586.73
2023-01-22T17:48:21.851Z,100593.06
2023-01-22T17:51:25.711Z,100600.40
2023-01-22T17:54:27.269Z,100605.02
2023-01-22T17:57:28.897Z,100605.37
2023-01-22T18:00:30.571Z,100607.73
2023-01-22T18:03:32.238Z,100613.50
2023-01-22T18:06:34.969Z,100621.84
2023-01-22T18:09:36.674Z,100626.45
2023-01-22T18:12:38.138Z,100626.92
2023-01-22T18:15:45.186Z,100634.67
2023-01-22T18:18:46.960Z,100625.81
2023-01-22T18:21:48.822Z,100632.60
2023-01-22T18:24:50.396Z,100635.34
2023-01-22T18:27:52.053Z,100641.84
2023-01-22T18:30:54.189Z,100641.17
2023-01-22T18:33:57.903Z,100651.41
2023-01-22T18:36:59.530Z,100651.44
2023-01-22T18:40:01.225Z,100649.73
2023-01-22T18:43:02.851Z,100652.15
2023-01-22T18:46:06.649Z,100649.95
2023-01-22T18:49:17.080Z,100649.44
2023-01-22T18:52:19.563Z,100648.03
2023-01-22T18:55:21.874Z,100654.04
2023-01-22T18:58:23.848Z,100650.67
2023-01-22T19:01:31.275Z,100657.76
2023-01-22T19:04:32.967Z,100659.61
2023-01-22T19:07:34.605Z,100661.18
2023-01-22T19:10:36.254Z,100661.70
2023-01-22T19:13:39.045Z,100658.80
2023-01-22T19:16:40.851Z,100658.47
2023-01-22T19:19:42.475Z,100660.21
2023-01-22T19:22:44.069Z,100660.04
2023-01-22T19:25:45.727Z,100657.79
2023-01-22T19:28:47.381Z,100666.11
2023-01-22T19:31:50.317Z,100670.17
2023-01-22T19:34:51.946Z,100673.46
2023-01-22T19:37:53.533Z,100678.52
2023-01-22T19:40:55.126Z,100685.57
2023-01-22T19:43:59.568Z,100686.40
2023-01-22T19:47:01.164Z,100689.59
2023-01-22T19:50:02.840Z,100692.73
2023-01-22T19:53:04.580Z,100699.32
2023-01-22T19:56:18.227Z,100701.22
2023-01-22T19:59:21.521Z,100707.66
2023-01-22T20:02:23.139Z,100710.71
2023-01-22T20:05:24.840Z,100708.02
2023-01-22T20:08:26.621Z,100702.77
2023-01-22T20:11:28.176Z,100706.16
2023-01-22T20:14:32.243Z,100711.61
2023-01-22T20:17:34.622Z,100712.59
2023-01-22T20:20:36.862Z,100707.77
2023-01-22T20:23:38.624Z,100706.73
2023-01-22T20:26:40.262Z,100712.52
2023-01-22T20:29:42.031Z,100715.56
2023-01-22T20:32:43.657Z,100719.10
2023-01-22T20:35:45.312Z,100718.39
2023-01-22T20:38:47.914Z,100729.83
2023-01-22T20:41:49.457Z,100728.69
2023-01-22T20:44:51.619Z,100725.27
2023-01-22T20:47:53.257Z,100728.81
2023-01-22T20:50:55.159Z,100735.01
2023-01-22T20:53:57.206Z,100740.05
2023-01-22T20:56:58.870Z,100745.77
2023-01-22T21:00:00.541Z,100743.60
2023-01-22T21:03:02.139Z,100734.58
2023-01-22T21:06:05.906Z,100737.45
2023-01-22T21:09:09.326Z,100740.02
2023-01-22T21:12:10.897Z,100738.25
2023-01-22T21:15:12.576Z,100739.34
2023-01-22T21:18:14.347Z,100742.34
2023-01-22T21:21:18.648Z,100744.81
2023-01-22T21:24:20.311Z,100738.23
2023-01-22T21:27:21.897Z,100740.46
2023-01-22T21:30:23.581Z,100741.86
2023-01-22T21:33:25.202Z,100748.86
2023-01-22T21:36:26.880Z,100745.45
2023-01-22T21:39:30.009Z,100746.98
2023-01-22T21:42:31.678Z,100755.20
2023-01-22T21:45:33.400Z,100764.05
2023-01-22T21:48:34.978Z,100769.98
2023-01-22T21:51:36.503Z,100774.73
2023-01-22T21:54:40.158Z,100783.73
2023-01-22T21:57:41.789Z,100789.14
2023-01-22T22:00:43.379Z,100788.28
2023-01-22T22:03:45.044Z,100771.30
2023-01-22T22:06:47.300Z,100757.51
2023-01-22T22:09:49.046Z,100773.51
2023-01-22T22:12:50.631Z,100784.94
2023-01-22T22:15:52.345Z,100784.45
2023-01-22T22:18:56.975Z,100796.55
2023-01-22T22:21:58.535Z,100798.75
2023-01-22T22:25:00.047Z,100797.73
2023-01-22T22:28:01.727Z,100798.93
2023-01-22T22:31:09.060Z,100799.98
2023-01-22T22:34:10.746Z,100797.10
2023-01-22T22:37:12.725Z,100800.67
2023-01-22T22:40:14.420Z,100802.16
2023-01-22T22:43:16.219Z,100805.21
2023-01-22T22:46:19.474Z,100806.94
2023-01-22T22:49:21.021Z,100811.54
2023-01-22T22:52:22.787Z,100806.06
2023-01-22T22:55:24.407Z,100810.79
2023-01-22T22:58:26.398Z,100812.98
2023-01-22T23:01:28.311Z,100815.70
2023-01-22T23:04:30.163Z,100816.71
2023-01-22T23:07:31.917Z,100820.27
2023-01-22T23:10:33.648Z,100825.25
2023-01-22T23:13:36.313Z,100826.46
2023-01-22T23:16:42.543Z,100820.48
2023-01-22T23:19:44.262Z,100819.47
2023-01-22T23:22:45.976Z,100822.20
2023-01-22T23:25:47.658Z,100828.33
2023-01-22T23:28:49.903Z,100833.77
2023-01-22T23:31:51.940Z,100830.42
2023-01-22T23:34:53.884Z,100830.80
2023-01-22T23:37:55.401Z,100833.88
2023-01-22T23:41:01.538Z,100838.09
2023-01-22T23:44:04.005Z,100842.30
2023-01-22T23:47:05.699Z,100847.25
2023-01-22T23:50:07.575Z,100853.56
2023-01-22T23:53:09.285Z,100864.92
2023-01-22T23:56:11.622Z,100865.04
2023-01-22T23:59:13.373Z,100870.46
